Time;durP1;ratioP1;P1;durP2;ratioP2;P2;SDS_P1;SDS_P2;PMS_P1;PMS_P2;Temp;Humidity;BMP_temperature;BMP_pressure;BME280_temperature;BME280_humidity;BME280_pressure;Samples;Min_cycle;Max_cycle;Signal;HPM_P1;HPM_P2
2021/01/12 00:03:48;;;;;;;24.03;14.00;;;-1.50;41.40;;;;;;10356062;28;20225;-70
2021/01/12 00:08:50;;;;;;;22.27;12.40;;;-1.50;41.50;;;;;;10355244;28;20596;-71
2021/01/12 00:13:52;;;;;;;21.03;12.77;;;-1.60;41.70;;;;;;10358974;28;20231;-70
2021/01/12 00:18:56;;;;;;;21.23;12.57;;;-1.70;41.80;;;;;;10356322;28;20227;-70
2021/01/12 00:23:58;;;;;;;24.63;13.30;;;-1.70;42.00;;;;;;10361439;28;20574;-71
2021/01/12 00:29:00;;;;;;;20.37;13.03;;;-1.60;42.00;;;;;;10357770;28;20237;-70
2021/01/12 00:34:03;;;;;;;23.87;13.47;;;-1.50;42.00;;;;;;10350811;28;20233;-71
2021/01/12 00:39:06;;;;;;;20.00;12.73;;;-1.60;41.90;;;;;;10358649;28;20231;-70
2021/01/12 00:44:08;;;;;;;22.50;12.20;;;-1.50;42.00;;;;;;10357373;28;20736;-70
2021/01/12 00:49:12;;;;;;;21.83;13.63;;;-1.50;42.10;;;;;;10359366;28;20659;-71
2021/01/12 00:54:16;;;;;;;18.40;12.53;;;-1.50;42.20;;;;;;10360949;28;20349;-70
2021/01/12 00:59:23;;;;;;;21.73;13.13;;;-1.50;42.30;;;;;;10362579;28;20603;-71
2021/01/12 01:04:26;;;;;;;21.17;13.40;;;-1.40;42.30;;;;;;10357764;28;20712;-71
2021/01/12 01:09:28;;;;;;;18.33;11.70;;;-1.40;42.30;;;;;;10359766;28;20234;-71
2021/01/12 01:14:31;;;;;;;18.10;11.97;;;-1.40;42.40;;;;;;10357321;28;20232;-70
2021/01/12 01:19:34;;;;;;;25.10;13.67;;;-1.40;42.40;;;;;;10359130;28;20230;-70
2021/01/12 01:24:36;;;;;;;21.40;13.43;;;-1.30;42.40;;;;;;10357333;28;20226;-70
2021/01/12 01:29:38;;;;;;;21.43;13.93;;;-1.30;42.40;;;;;;10355800;28;20222;-70
2021/01/12 01:34:41;;;;;;;20.93;13.50;;;-1.30;42.40;;;;;;10352333;28;20230;-70
2021/01/12 01:39:43;;;;;;;21.73;14.10;;;-1.30;42.50;;;;;;10355779;28;20714;-71
2021/01/12 01:44:45;;;;;;;19.20;12.93;;;-1.20;42.80;;;;;;10348639;28;20738;-70
2021/01/12 01:49:48;;;;;;;21.90;13.73;;;-1.20;42.70;;;;;;10354078;28;20230;-70
2021/01/12 01:54:51;;;;;;;18.93;13.27;;;-1.10;42.90;;;;;;10354239;28;20228;-71
2021/01/12 01:59:53;;;;;;;24.07;15.73;;;-1.10;42.70;;;;;;10348479;28;20677;-71
2021/01/12 02:05:02;;;;;;;21.37;13.93;;;-1.00;42.80;;;;;;10354148;28;20237;-71
2021/01/12 02:10:06;;;;;;;18.37;14.07;;;-1.00;43.10;;;;;;10352814;28;20237;-71
2021/01/12 02:15:10;;;;;;;22.03;14.43;;;-1.00;42.90;;;;;;10348030;28;20223;-70
2021/01/12 02:20:14;;;;;;;21.33;14.60;;;-0.90;43.10;;;;;;10359906;28;20231;-71
2021/01/12 02:25:19;;;;;;;21.17;14.43;;;-0.90;43.00;;;;;;10355697;28;20591;-70
2021/01/12 02:30:21;;;;;;;20.77;14.67;;;-0.80;43.00;;;;;;10351964;28;20238;-70
2021/01/12 02:35:27;;;;;;;20.33;13.60;;;-0.70;43.00;;;;;;10352603;28;20222;-71
2021/01/12 02:40:30;;;;;;;18.57;13.50;;;-0.70;43.10;;;;;;10356795;28;20226;-70
2021/01/12 02:45:33;;;;;;;21.50;14.07;;;-0.60;43.10;;;;;;10356177;28;20249;-71
2021/01/12 02:50:35;;;;;;;18.37;13.10;;;-0.60;43.20;;;;;;10355076;28;20254;-71
2021/01/12 02:55:38;;;;;;;20.80;14.07;;;-0.50;43.30;;;;;;10353892;28;20228;-70
2021/01/12 03:00:40;;;;;;;19.83;14.03;;;-0.50;43.30;;;;;;10358700;28;20695;-70
2021/01/12 03:05:43;;;;;;;19.47;13.87;;;-0.40;43.20;;;;;;10353395;28;20609;-70
2021/01/12 03:10:46;;;;;;;21.63;15.10;;;-0.30;43.30;;;;;;10348040;28;20233;-71
2021/01/12 03:15:48;;;;;;;20.20;14.73;;;-0.20;43.40;;;;;;10350683;28;20230;-70
2021/01/12 03:20:50;;;;;;;20.87;15.53;;;-0.20;43.30;;;;;;10351749;28;20226;-71
2021/01/12 03:25:53;;;;;;;20.00;15.43;;;-0.10;43.20;;;;;;10353754;28;20583;-71
2021/01/12 03:30:55;;;;;;;19.50;15.03;;;-0.10;43.20;;;;;;10349045;28;20234;-71
2021/01/12 03:35:58;;;;;;;19.60;15.90;;;-0.10;43.20;;;;;;10355129;28;20253;-71
2021/01/12 03:41:01;;;;;;;20.83;16.30;;;-0.10;43.30;;;;;;10349005;28;20249;-70
2021/01/12 03:46:03;;;;;;;19.53;14.57;;;-0.10;43.60;;;;;;10354586;28;20314;-71
2021/01/12 03:51:06;;;;;;;22.33;16.87;;;-0.10;43.70;;;;;;10350610;28;20257;-71
2021/01/12 03:56:13;;;;;;;22.00;16.87;;;-0.10;43.80;;;;;;10360183;28;20245;-71
2021/01/12 04:01:15;;;;;;;20.97;16.17;;;0.00;44.00;;;;;;10362547;28;20265;-70
2021/01/12 04:06:18;;;;;;;21.03;16.90;;;0.00;44.00;;;;;;10382422;28;20226;-70
2021/01/12 04:11:21;;;;;;;21.97;16.70;;;0.10;44.00;;;;;;10388473;28;20230;-71
2021/01/12 04:16:24;;;;;;;22.70;18.00;;;0.20;44.10;;;;;;10360611;28;20230;-71
2021/01/12 04:21:26;;;;;;;22.17;16.60;;;0.20;44.10;;;;;;10380977;28;20231;-71
2021/01/12 04:26:29;;;;;;;23.50;17.53;;;0.40;44.10;;;;;;10379474;28;20306;-71
2021/01/12 04:31:32;;;;;;;21.20;16.67;;;0.30;43.80;;;;;;10351427;28;20222;-70
2021/01/12 04:36:34;;;;;;;21.03;16.17;;;0.40;43.80;;;;;;10358280;28;20231;-71
2021/01/12 04:41:37;;;;;;;20.97;16.03;;;0.50;43.70;;;;;;10350474;28;20222;-71
2021/01/12 04:46:40;;;;;;;20.77;16.50;;;0.50;43.60;;;;;;10363421;28;20226;-71
2021/01/12 04:51:44;;;;;;;21.80;17.20;;;0.50;43.50;;;;;;10362164;28;20306;-71
2021/01/12 04:56:47;;;;;;;22.07;16.90;;;0.50;43.30;;;;;;10356485;28;20227;-71
2021/01/12 05:01:49;;;;;;;22.57;16.87;;;0.40;43.30;;;;;;10356368;28;20699;-70
2021/01/12 05:06:54;;;;;;;21.93;17.73;;;0.40;43.40;;;;;;10356567;28;20711;-71
2021/01/12 05:11:58;;;;;;;22.07;16.97;;;0.30;43.40;;;;;;10351206;28;20237;-71
2021/01/12 05:17:01;;;;;;;20.00;16.70;;;0.40;43.70;;;;;;10358085;28;20234;-69
2021/01/12 05:22:05;;;;;;;20.67;16.47;;;0.30;43.70;;;;;;10360676;28;20713;-69
2021/01/12 05:27:11;;;;;;;22.03;17.30;;;0.40;43.80;;;;;;10356776;28;20226;-69
2021/01/12 05:32:13;;;;;;;20.57;16.27;;;0.40;43.80;;;;;;10357618;28;20276;-70
2021/01/12 05:37:16;;;;;;;19.03;15.53;;;0.40;43.70;;;;;;10357371;28;20222;-69
2021/01/12 05:42:20;;;;;;;20.97;16.50;;;0.50;43.90;;;;;;10355270;28;20237;-69
2021/01/12 05:47:22;;;;;;;22.90;16.47;;;0.60;43.80;;;;;;10360282;28;20226;-69
2021/01/12 05:52:26;;;;;;;19.80;15.77;;;0.70;44.60;;;;;;10353488;28;20222;-69
2021/01/12 05:57:30;;;;;;;20.23;15.70;;;0.80;43.90;;;;;;10353961;28;20320;-67
2021/01/12 06:02:39;;;;;;;17.53;15.03;;;0.80;43.90;;;;;;10354483;28;20309;-67
2021/01/12 06:07:42;;;;;;;16.83;14.03;;;0.90;44.10;;;;;;10357346;28;20738;-67
2021/01/12 06:12:49;;;;;;;16.87;13.93;;;1.00;44.10;;;;;;10353140;28;20223;-67
2021/01/12 06:18:03;;;;;;;17.67;14.83;;;1.10;44.10;;;;;;10352647;28;20605;-67
2021/01/12 06:23:08;;;;;;;20.53;16.53;;;1.20;44.00;;;;;;10351609;28;20277;-67
2021/01/12 06:28:11;;;;;;;19.67;15.43;;;1.30;43.90;;;;;;10352052;28;20222;-67
2021/01/12 06:33:16;;;;;;;19.57;15.27;;;1.50;44.10;;;;;;10352265;28;20667;-67
2021/01/12 06:38:20;;;;;;;17.07;14.20;;;1.50;44.00;;;;;;10361792;28;20234;-67
2021/01/12 06:43:26;;;;;;;16.30;13.50;;;1.60;44.00;;;;;;10367117;28;20233;-71
2021/01/12 06:48:31;;;;;;;17.53;13.07;;;1.60;44.00;;;;;;10361287;28;20223;-72
2021/01/12 06:53:34;;;;;;;14.27;12.50;;;1.80;44.20;;;;;;10351510;28;20666;-72
2021/01/12 06:58:44;;;;;;;14.87;12.20;;;1.80;44.10;;;;;;10355587;28;20305;-73
2021/01/12 07:03:50;;;;;;;17.00;13.60;;;1.90;44.10;;;;;;10356790;28;20218;-73
2021/01/12 07:08:54;;;;;;;19.40;14.43;;;2.10;44.20;;;;;;10346521;28;20234;-73
2021/01/12 07:13:58;;;;;;;15.53;13.40;;;2.20;44.30;;;;;;10344119;28;20218;-73
2021/01/12 07:19:00;;;;;;;19.97;15.60;;;2.10;44.20;;;;;;10359431;28;20229;-70
2021/01/12 07:24:04;;;;;;;14.53;12.33;;;2.20;44.20;;;;;;10316376;28;20223;-70
2021/01/12 07:29:09;;;;;;;12.77;10.77;;;2.20;44.20;;;;;;10349217;28;20711;-72
2021/01/12 07:34:15;;;;;;;12.53;11.23;;;2.30;44.40;;;;;;10363635;28;20718;-72
2021/01/12 07:39:18;;;;;;;14.57;12.03;;;2.40;44.30;;;;;;10365342;28;20465;-73
2021/01/12 07:44:21;;;;;;;13.17;11.17;;;2.50;44.40;;;;;;10361859;28;20232;-70
2021/01/12 07:49:24;;;;;;;11.87;10.60;;;2.50;44.40;;;;;;10355924;28;20230;-73
2021/01/12 07:54:26;;;;;;;10.63;9.47;;;2.60;44.50;;;;;;10365121;28;20229;-73
2021/01/12 07:59:29;;;;;;;12.63;10.70;;;2.70;44.50;;;;;;10359659;28;20317;-73
2021/01/12 08:04:32;;;;;;;11.50;9.17;;;2.70;44.50;;;;;;10359370;28;20226;-72
2021/01/12 08:09:36;;;;;;;12.53;9.77;;;2.80;44.50;;;;;;10361156;28;20222;-72
2021/01/12 08:14:39;;;;;;;10.40;9.00;;;2.80;44.50;;;;;;10357065;28;20619;-72
2021/01/12 08:19:41;;;;;;;8.20;7.40;;;2.90;44.70;;;;;;10366993;28;20252;-72
2021/01/12 08:24:45;;;;;;;8.83;7.93;;;3.00;44.70;;;;;;10355804;28;20237;-72
2021/01/12 08:29:48;;;;;;;8.07;7.20;;;3.10;44.80;;;;;;10354043;28;20231;-73
2021/01/12 08:34:58;;;;;;;8.97;8.07;;;3.10;44.70;;;;;;10360853;28;20230;-73
2021/01/12 08:40:02;;;;;;;7.63;6.87;;;3.20;44.80;;;;;;10359550;28;20609;-72
2021/01/12 08:45:13;;;;;;;7.60;6.80;;;3.30;44.90;;;;;;10363397;28;20588;-73
2021/01/12 08:50:15;;;;;;;7.67;6.87;;;3.40;44.80;;;;;;10349450;28;20237;-72
2021/01/12 08:55:19;;;;;;;9.77;7.13;;;3.50;44.80;;;;;;10355559;28;20285;-72
2021/01/12 09:00:27;;;;;;;8.57;7.50;;;3.60;44.90;;;;;;10355096;28;20602;-71
2021/01/12 09:05:32;;;;;;;8.00;7.20;;;3.70;45.00;;;;;;10357804;28;20225;-72
2021/01/12 09:10:35;;;;;;;7.93;6.80;;;3.70;45.10;;;;;;10356716;28;20726;-72
2021/01/12 09:15:40;;;;;;;7.43;6.67;;;3.80;45.00;;;;;;10351632;28;20250;-72
2021/01/12 09:20:42;;;;;;;7.53;6.83;;;3.90;45.10;;;;;;10351069;28;20242;-72
2021/01/12 09:25:51;;;;;;;9.00;7.87;;;4.00;45.20;;;;;;10355264;28;20229;-73
2021/01/12 09:31:04;;;;;;;6.60;6.00;;;4.00;45.40;;;;;;10351809;28;20666;-73
2021/01/12 09:36:08;;;;;;;7.47;6.73;;;4.00;45.60;;;;;;10358437;28;20324;-72
2021/01/12 09:41:11;;;;;;;6.90;6.20;;;4.00;45.50;;;;;;10354348;28;20231;-72
2021/01/12 09:46:15;;;;;;;7.23;6.17;;;4.10;45.70;;;;;;10375054;28;20237;-72
2021/01/12 09:51:18;;;;;;;7.37;6.33;;;4.10;45.90;;;;;;10373266;28;20276;-72
2021/01/12 09:56:21;;;;;;;9.93;8.07;;;4.10;45.80;;;;;;10359363;28;20226;-72
2021/01/12 10:01:24;;;;;;;7.40;6.67;;;4.10;45.90;;;;;;10356290;28;20844;-70
2021/01/12 10:06:29;;;;;;;7.20;6.50;;;4.10;46.10;;;;;;10353593;28;20310;-70
2021/01/12 10:11:33;;;;;;;7.33;6.63;;;4.20;46.20;;;;;;10375821;28;20309;-70
2021/01/12 10:16:36;;;;;;;6.93;6.03;;;4.20;46.50;;;;;;10371021;28;20218;-70
2021/01/12 10:21:38;;;;;;;6.30;5.70;;;4.20;46.60;;;;;;10364338;28;20233;-71
2021/01/12 10:26:41;;;;;;;6.80;5.03;;;4.20;47.00;;;;;;10369768;28;20242;-70
2021/01/12 10:31:44;;;;;;;6.53;5.40;;;4.20;46.80;;;;;;10378332;28;20241;-71
2021/01/12 10:36:50;;;;;;;4.67;4.27;;;4.30;47.10;;;;;;10377890;28;20631;-71
2021/01/12 10:41:54;;;;;;;6.00;5.40;;;4.30;47.10;;;;;;10379139;28;20231;-71
2021/01/12 10:46:57;;;;;;;7.57;4.60;;;4.40;47.20;;;;;;10366007;28;20219;-70
2021/01/12 10:52:02;;;;;;;4.27;3.87;;;4.50;47.20;;;;;;10353719;28;20587;-70
2021/01/12 10:57:08;;;;;;;4.47;4.07;;;4.50;47.10;;;;;;10349927;28;20589;-71
2021/01/12 11:02:12;;;;;;;4.33;3.80;;;4.60;47.50;;;;;;10354555;28;20245;-70
2021/01/12 11:07:18;;;;;;;3.97;3.57;;;4.60;47.30;;;;;;10355947;28;20228;-70
2021/01/12 11:12:21;;;;;;;4.20;3.80;;;4.70;47.20;;;;;;10354772;28;20241;-70
2021/01/12 11:17:25;;;;;;;4.10;3.70;;;4.70;47.00;;;;;;10353328;28;20313;-70
2021/01/12 11:22:27;;;;;;;4.20;3.80;;;4.70;47.40;;;;;;10351034;28;20762;-71
2021/01/12 11:27:30;;;;;;;4.67;4.00;;;4.80;47.40;;;;;;10361461;28;20233;-71
2021/01/12 11:32:34;;;;;;;5.10;4.60;;;4.80;47.30;;;;;;10377043;28;20233;-71
2021/01/12 11:37:36;;;;;;;3.87;3.57;;;4.80;47.40;;;;;;10375833;28;20226;-70
2021/01/12 11:42:39;;;;;;;3.90;3.60;;;4.90;47.40;;;;;;10376628;28;20217;-69
2021/01/12 11:47:42;;;;;;;4.17;3.77;;;4.90;47.30;;;;;;10369700;28;20229;-69
2021/01/12 11:52:45;;;;;;;4.73;4.33;;;4.90;47.30;;;;;;10371812;28;20222;-70
2021/01/12 11:57:47;;;;;;;4.60;4.20;;;4.90;47.40;;;;;;10351439;28;20237;-70
2021/01/12 12:02:50;;;;;;;4.40;3.70;;;5.00;47.50;;;;;;10352389;28;20222;-70
2021/01/12 12:07:54;;;;;;;5.03;4.60;;;5.00;47.50;;;;;;10360143;28;20226;-69
2021/01/12 12:12:56;;;;;;;4.00;3.70;;;5.00;47.50;;;;;;10354228;28;20715;-70
2021/01/12 12:18:00;;;;;;;4.33;3.93;;;5.10;47.50;;;;;;10364472;28;20690;-69
2021/01/12 12:23:02;;;;;;;4.90;4.50;;;5.10;47.50;;;;;;10360389;28;20305;-70
2021/01/12 12:28:05;;;;;;;4.63;4.23;;;5.10;47.30;;;;;;10362780;28;20226;-70
2021/01/12 12:33:09;;;;;;;4.13;3.73;;;5.20;47.50;;;;;;10363263;28;20229;-70
2021/01/12 12:38:11;;;;;;;4.07;3.67;;;5.20;47.50;;;;;;10369844;28;20243;-70
2021/01/12 12:43:16;;;;;;;4.10;3.73;;;5.20;47.30;;;;;;10379123;28;20305;-70
2021/01/12 12:48:20;;;;;;;4.17;3.63;;;5.20;47.40;;;;;;10379099;28;20721;-70
2021/01/12 12:53:30;;;;;;;3.47;3.17;;;5.20;47.50;;;;;;10381883;28;20237;-70
2021/01/12 12:58:34;;;;;;;4.43;4.03;;;5.20;47.60;;;;;;10372891;28;20269;-70
2021/01/12 13:03:37;;;;;;;3.87;3.57;;;5.20;47.50;;;;;;10359977;28;20787;-69
2021/01/12 13:08:40;;;;;;;4.20;3.80;;;5.20;47.70;;;;;;10373172;28;20249;-69
2021/01/12 13:13:44;;;;;;;3.80;3.50;;;5.20;47.80;;;;;;10385584;28;20229;-69
2021/01/12 13:18:53;;;;;;;3.70;3.40;;;5.20;47.70;;;;;;10363990;28;20234;-69
2021/01/12 13:23:56;;;;;;;3.80;3.50;;;5.20;47.70;;;;;;10340512;28;20711;-69
2021/01/12 13:28:59;;;;;;;3.97;3.57;;;5.20;47.70;;;;;;10368222;28;20242;-69
2021/01/12 13:34:02;;;;;;;4.37;3.97;;;5.30;47.60;;;;;;10370988;28;20217;-70
2021/01/12 13:39:06;;;;;;;4.10;3.70;;;5.30;47.60;;;;;;10364527;28;21002;-69
2021/01/12 13:44:08;;;;;;;3.17;2.87;;;5.30;47.60;;;;;;10361031;28;20226;-70
2021/01/12 13:49:12;;;;;;;3.70;3.40;;;5.30;47.50;;;;;;10373575;28;20244;-70
2021/01/12 13:54:15;;;;;;;3.77;3.47;;;5.30;47.60;;;;;;10374936;28;20230;-70
2021/01/12 13:59:19;;;;;;;2.83;2.63;;;5.30;47.80;;;;;;10373454;28;20230;-70
2021/01/12 14:04:22;;;;;;;2.83;2.63;;;5.30;47.80;;;;;;10374735;28;20248;-70
2021/01/12 14:09:25;;;;;;;3.30;3.00;;;5.30;47.80;;;;;;10364694;28;20239;-70
2021/01/12 14:14:27;;;;;;;3.50;3.00;;;5.30;47.70;;;;;;10378371;28;20238;-70
2021/01/12 14:19:31;;;;;;;2.77;2.57;;;5.40;47.70;;;;;;10368729;28;20230;-70
2021/01/12 14:24:34;;;;;;;2.80;2.60;;;5.40;47.80;;;;;;10354931;28;20698;-71
2021/01/12 14:29:36;;;;;;;2.73;2.53;;;5.40;47.50;;;;;;10360379;28;20683;-70
2021/01/12 14:34:40;;;;;;;3.00;2.70;;;5.40;47.50;;;;;;10354898;28;20707;-71
2021/01/12 14:40:04;;;;;;;3.13;2.83;;;5.50;47.70;;;;;;10358741;28;20227;-71
2021/01/12 14:45:08;;;;;;;4.13;2.60;;;5.50;47.90;;;;;;10358380;28;20689;-71
2021/01/12 14:50:12;;;;;;;2.70;2.50;;;5.50;47.60;;;;;;10368300;28;20244;-71
2021/01/12 14:55:14;;;;;;;2.30;2.10;;;5.50;47.70;;;;;;10369669;28;20321;-71
2021/01/12 15:00:18;;;;;;;2.60;2.40;;;5.50;47.60;;;;;;10371088;28;20229;-71
2021/01/12 15:05:22;;;;;;;2.27;2.07;;;5.50;47.90;;;;;;10368055;28;20230;-70
2021/01/12 15:10:24;;;;;;;2.60;2.40;;;5.50;48.00;;;;;;10361664;28;20309;-71
2021/01/12 15:15:26;;;;;;;3.00;2.63;;;5.50;47.90;;;;;;10375751;28;20233;-70
2021/01/12 15:20:31;;;;;;;2.40;2.20;;;5.50;47.80;;;;;;10373698;28;20233;-71
2021/01/12 15:25:33;;;;;;;2.53;2.33;;;5.50;47.80;;;;;;10364715;28;20219;-71
2021/01/12 15:30:36;;;;;;;7.10;5.30;;;5.50;47.70;;;;;;10367798;28;20236;-71
2021/01/12 15:35:45;;;;;;;3.53;3.23;;;5.50;47.70;;;;;;10361651;28;20225;-71
2021/01/12 15:40:48;;;;;;;3.67;2.83;;;5.50;47.90;;;;;;10359459;28;20732;-71
2021/01/12 15:45:54;;;;;;;2.47;2.27;;;5.50;47.90;;;;;;10361471;28;20230;-71
2021/01/12 15:50:59;;;;;;;2.30;2.10;;;5.50;48.00;;;;;;10374882;28;20652;-71
2021/01/12 15:56:01;;;;;;;2.30;2.10;;;5.50;48.00;;;;;;10362791;28;20333;-71
2021/01/12 16:01:05;;;;;;;2.60;2.40;;;5.50;47.70;;;;;;10349683;28;20230;-70
2021/01/12 16:06:09;;;;;;;2.53;2.33;;;5.50;47.90;;;;;;10359239;28;20225;-71
2021/01/12 16:11:13;;;;;;;2.90;2.60;;;5.50;48.10;;;;;;10356693;28;20765;-72
2021/01/12 16:16:16;;;;;;;2.57;2.33;;;5.50;48.00;;;;;;10352012;28;20226;-72
2021/01/12 16:21:20;;;;;;;2.37;2.23;;;5.50;48.00;;;;;;10359442;28;20222;-70
2021/01/12 16:26:23;;;;;;;3.17;2.87;;;5.50;48.10;;;;;;10370248;28;20253;-71
2021/01/12 16:31:29;;;;;;;3.20;2.90;;;5.50;48.20;;;;;;10373615;28;20231;-71
2021/01/12 16:36:34;;;;;;;3.37;3.07;;;5.40;48.30;;;;;;10376307;28;20248;-71
2021/01/12 16:41:37;;;;;;;2.60;2.40;;;5.50;48.30;;;;;;10369875;28;20222;-71
2021/01/12 16:46:42;;;;;;;3.90;3.60;;;5.50;48.20;;;;;;10364387;28;20223;-71
2021/01/12 16:51:48;;;;;;;3.00;2.80;;;5.50;48.20;;;;;;10349378;28;20231;-71
2021/01/12 16:57:03;;;;;;;2.80;2.60;;;5.50;48.30;;;;;;10348377;28;20235;-72
2021/01/12 17:02:27;;;;;;;2.23;2.10;;;5.50;48.40;;;;;;10344972;28;20223;-71
2021/01/12 17:07:35;;;;;;;2.93;2.73;;;5.50;48.40;;;;;;10356650;28;20222;-71
2021/01/12 17:12:38;;;;;;;3.13;2.93;;;5.50;48.40;;;;;;10349643;28;20730;-71
2021/01/12 17:17:42;;;;;;;2.53;2.33;;;5.50;48.30;;;;;;10354919;28;20230;-71
2021/01/12 17:22:47;;;;;;;2.60;2.40;;;5.50;48.20;;;;;;10359363;28;20733;-71
2021/01/12 17:27:51;;;;;;;2.40;2.20;;;5.50;48.40;;;;;;10366015;28;20234;-71
2021/01/12 17:32:55;;;;;;;2.43;2.23;;;5.60;48.30;;;;;;10359598;28;20227;-69
2021/01/12 17:38:00;;;;;;;2.60;2.40;;;5.50;48.30;;;;;;10350955;28;20218;-71
2021/01/12 17:43:03;;;;;;;2.67;2.47;;;5.50;48.30;;;;;;10358696;28;20218;-72
2021/01/12 17:48:06;;;;;;;2.50;2.30;;;5.50;48.20;;;;;;10354288;28;20954;-72
2021/01/12 17:53:10;;;;;;;2.27;2.07;;;5.50;48.20;;;;;;10355478;28;20241;-72
2021/01/12 17:58:13;;;;;;;2.13;1.93;;;5.60;48.30;;;;;;10353056;28;20309;-72
2021/01/12 18:03:15;;;;;;;2.70;2.50;;;5.60;48.30;;;;;;10358740;28;21323;-72
2021/01/12 18:08:23;;;;;;;2.43;2.23;;;5.60;48.40;;;;;;10364489;28;20225;-72
2021/01/12 18:13:28;;;;;;;2.77;2.57;;;5.60;48.60;;;;;;10357727;28;20222;-72
2021/01/12 18:18:30;;;;;;;2.67;2.27;;;5.60;48.60;;;;;;10374662;28;20234;-72
2021/01/12 18:23:35;;;;;;;2.90;2.70;;;5.60;48.50;;;;;;10376517;28;20307;-72
2021/01/12 18:28:46;;;;;;;2.50;2.30;;;5.60;48.60;;;;;;10362376;28;20838;-72
2021/01/12 18:33:48;;;;;;;2.27;2.13;;;5.60;48.60;;;;;;10372916;28;20226;-71
2021/01/12 18:38:53;;;;;;;2.53;2.33;;;5.60;48.30;;;;;;10359978;28;20236;-72
2021/01/12 18:43:56;;;;;;;2.67;2.47;;;5.70;48.40;;;;;;10360318;28;20602;-72
2021/01/12 18:48:59;;;;;;;2.90;2.70;;;5.70;48.70;;;;;;10352160;28;20297;-72
2021/01/12 18:54:03;;;;;;;2.63;2.43;;;5.70;48.60;;;;;;10365191;28;20236;-72
2021/01/12 18:59:06;;;;;;;2.20;2.10;;;5.70;48.70;;;;;;10351565;28;20227;-73
2021/01/12 19:04:09;;;;;;;2.57;2.37;;;5.70;48.50;;;;;;10350297;28;20230;-72
2021/01/12 19:09:12;;;;;;;2.30;2.10;;;5.70;48.50;;;;;;10357953;28;20596;-72
2021/01/12 19:14:15;;;;;;;2.60;2.40;;;5.70;48.50;;;;;;10344932;28;20219;-73
2021/01/12 19:19:18;;;;;;;2.90;2.60;;;5.70;48.60;;;;;;10359714;28;20237;-74
2021/01/12 19:24:22;;;;;;;2.67;2.47;;;5.70;48.40;;;;;;10358681;28;20230;-73
2021/01/12 19:29:24;;;;;;;2.60;2.40;;;5.70;48.40;;;;;;10359629;28;20598;-74
2021/01/12 19:34:29;;;;;;;2.03;1.93;;;5.70;48.20;;;;;;10369343;28;20570;-72
2021/01/12 19:39:34;;;;;;;2.93;2.60;;;5.70;48.30;;;;;;10377097;28;20226;-72
2021/01/12 19:44:36;;;;;;;2.40;2.20;;;5.80;48.40;;;;;;10357531;28;20227;-73
2021/01/12 19:49:41;;;;;;;2.67;2.47;;;5.70;48.20;;;;;;10365992;28;20714;-73
2021/01/12 19:54:45;;;;;;;1.93;1.83;;;5.70;48.20;;;;;;10375724;28;20261;-73
2021/01/12 19:59:48;;;;;;;2.27;2.10;;;5.70;48.30;;;;;;10366436;28;20230;-72
2021/01/12 20:04:52;;;;;;;2.17;2.07;;;5.70;48.30;;;;;;10367928;28;20230;-73
2021/01/12 20:09:56;;;;;;;2.10;2.00;;;5.70;48.60;;;;;;10375873;28;20241;-73
2021/01/12 20:14:58;;;;;;;2.20;2.10;;;5.70;48.70;;;;;;10377556;28;20234;-73
2021/01/12 20:20:03;;;;;;;2.43;2.23;;;5.70;48.70;;;;;;10372600;28;20233;-73
2021/01/12 20:25:14;;;;;;;2.80;2.60;;;5.80;48.70;;;;;;10376153;28;20225;-73
2021/01/12 20:30:17;;;;;;;2.40;2.30;;;5.80;48.80;;;;;;10380450;28;20312;-73
2021/01/12 20:35:22;;;;;;;2.20;2.10;;;5.80;48.40;;;;;;10386194;28;20226;-73
2021/01/12 20:40:26;;;;;;;2.50;2.30;;;5.80;48.50;;;;;;10373141;28;20253;-73
2021/01/12 20:45:34;;;;;;;2.40;2.20;;;5.80;48.30;;;;;;10370699;28;20973;-73
2021/01/12 20:50:38;;;;;;;3.10;2.90;;;5.90;48.10;;;;;;10378130;28;20225;-74
2021/01/12 20:55:42;;;;;;;3.50;3.17;;;5.90;47.90;;;;;;10360640;28;20230;-73
2021/01/12 21:00:45;;;;;;;3.40;3.10;;;5.90;47.80;;;;;;10361642;28;20791;-73
2021/01/12 21:05:48;;;;;;;2.57;2.43;;;5.90;47.80;;;;;;10359649;28;20226;-73
2021/01/12 21:10:52;;;;;;;2.70;2.50;;;5.90;47.60;;;;;;10363844;28;20334;-73
2021/01/12 21:15:54;;;;;;;2.60;2.50;;;5.90;47.80;;;;;;10382424;28;20232;-73
2021/01/12 21:20:56;;;;;;;2.67;2.53;;;5.90;47.70;;;;;;10377747;28;20221;-73
2021/01/12 21:25:59;;;;;;;2.90;2.70;;;5.90;47.70;;;;;;10367598;28;20222;-75
2021/01/12 21:31:01;;;;;;;2.70;2.50;;;5.90;47.70;;;;;;10370071;28;20240;-75
2021/01/12 21:36:08;;;;;;;2.57;2.47;;;5.90;47.60;;;;;;10371092;28;20226;-75
2021/01/12 21:41:12;;;;;;;2.50;2.40;;;5.80;48.00;;;;;;10381780;28;20217;-75
2021/01/12 21:46:14;;;;;;;3.23;3.03;;;5.80;47.80;;;;;;10368896;28;20234;-75
2021/01/12 21:51:18;;;;;;;4.10;3.80;;;5.80;47.70;;;;;;10356481;28;20249;-71
2021/01/12 21:56:22;;;;;;;3.93;3.63;;;5.70;47.90;;;;;;10365990;28;20250;-71
2021/01/12 22:01:25;;;;;;;3.50;3.20;;;5.70;48.00;;;;;;10365461;28;20265;-71
2021/01/12 22:06:29;;;;;;;3.97;3.67;;;5.70;47.70;;;;;;10369478;28;20218;-72
2021/01/12 22:11:32;;;;;;;4.17;3.97;;;5.70;48.00;;;;;;10345201;28;20249;-72
2021/01/12 22:16:34;;;;;;;4.33;4.03;;;5.70;48.20;;;;;;10352344;28;20230;-72
2021/01/12 22:21:41;;;;;;;4.17;3.80;;;5.60;47.90;;;;;;10346852;28;20257;-72
2021/01/12 22:26:44;;;;;;;4.40;4.10;;;5.60;48.10;;;;;;10359854;28;20224;-72
2021/01/12 22:31:48;;;;;;;4.07;3.70;;;5.60;48.00;;;;;;10346899;28;20243;-72
2021/01/12 22:36:51;;;;;;;3.97;3.67;;;5.60;47.80;;;;;;10351496;28;20238;-74
2021/01/12 22:41:54;;;;;;;4.33;4.03;;;5.60;47.80;;;;;;10349090;28;20604;-74
2021/01/12 22:47:03;;;;;;;4.10;3.80;;;5.60;47.80;;;;;;10343867;28;20226;-74
2021/01/12 22:52:06;;;;;;;3.83;3.63;;;5.60;47.70;;;;;;10355976;28;20698;-74
2021/01/12 22:57:09;;;;;;;3.63;3.43;;;5.60;47.60;;;;;;10353402;28;20230;-74
2021/01/12 23:02:16;;;;;;;3.40;3.20;;;5.50;47.50;;;;;;10351321;28;20248;-74
2021/01/12 23:07:18;;;;;;;4.13;3.83;;;5.50;47.30;;;;;;10350391;28;20230;-74
2021/01/12 23:12:21;;;;;;;3.67;3.47;;;5.60;47.30;;;;;;10348001;28;22374;-72
2021/01/12 23:17:45;;;;;;;3.60;3.40;;;5.60;47.20;;;;;;10350458;28;20280;-72
2021/01/12 23:22:48;;;;;;;3.83;3.60;;;5.50;47.10;;;;;;10352451;28;20241;-72
2021/01/12 23:27:52;;;;;;;3.97;3.60;;;5.50;46.90;;;;;;10350605;28;20230;-72
2021/01/12 23:32:55;;;;;;;4.10;3.80;;;5.50;46.80;;;;;;10352373;28;20731;-72
2021/01/12 23:37:59;;;;;;;3.47;3.27;;;5.50;46.70;;;;;;10342446;28;20230;-72
2021/01/12 23:43:04;;;;;;;4.00;3.70;;;5.50;46.80;;;;;;10351227;28;20636;-72
2021/01/12 23:48:07;;;;;;;4.47;4.17;;;5.50;46.50;;;;;;10342490;28;20320;-72
2021/01/12 23:53:09;;;;;;;5.30;4.80;;;5.50;46.50;;;;;;10348547;28;20227;-72
2021/01/12 23:58:12;;;;;;;5.03;4.63;;;5.50;46.40;;;;;;10345057;28;20730;-73
